createdAt,value
2024-04-19T00:01:54.215Z,100220.59
2024-04-19T00:07:00.301Z,100219.81
2024-04-19T00:12:07.285Z,100218.88
2024-04-19T00:17:13.811Z,100211.34
2024-04-19T00:22:20.198Z,100210.77
2024-04-19T00:27:26.320Z,100206.56
2024-04-19T00:32:32.720Z,100211.24
2024-04-19T00:37:38.736Z,100210.20
2024-04-19T00:42:44.874Z,100215.79
2024-04-19T00:47:51.132Z,100212.42
2024-04-19T00:52:57.343Z,100210.56
2024-04-19T00:58:04.286Z,100207.89
2024-04-19T01:03:12.047Z,100206.00
2024-04-19T01:08:18.459Z,100203.70
2024-04-19T01:13:24.538Z,100201.65
2024-04-19T01:18:30.826Z,100200.99
2024-04-19T01:23:37.646Z,100194.43
2024-04-19T01:28:45.147Z,100195.02
2024-04-19T01:33:51.216Z,100193.10
2024-04-19T01:38:57.177Z,100193.66
2024-04-19T01:44:03.342Z,100190.27
2024-04-19T01:49:09.483Z,100184.77
2024-04-19T01:54:16.675Z,100185.60
2024-04-19T01:59:22.760Z,100182.58
2024-04-19T02:04:29.171Z,100180.91
2024-04-19T02:09:36.158Z,100186.46
2024-04-19T02:14:42.202Z,100182.17
2024-04-19T02:19:48.155Z,100179.86
2024-04-19T02:24:54.455Z,100176.61
2024-04-19T02:30:19.237Z,100176.40
2024-04-19T02:35:25.857Z,100175.68
2024-04-19T02:40:32.303Z,100168.10
2024-04-19T02:45:52.948Z,100168.98
2024-04-19T02:51:04.913Z,100168.58
2024-04-19T02:56:10.979Z,100164.79
2024-04-19T03:01:17.112Z,100163.94
2024-04-19T03:06:24.779Z,100157.42
2024-04-19T03:11:30.832Z,100149.41
2024-04-19T03:16:37.011Z,100142.73
2024-04-19T03:21:43.052Z,100142.48
2024-04-19T03:26:49.251Z,100138.84
2024-04-19T03:31:55.282Z,100128.83
2024-04-19T03:37:01.391Z,100128.23
2024-04-19T03:42:15.269Z,100121.45
2024-04-19T03:47:21.443Z,100117.05
2024-04-19T03:52:27.818Z,100113.48
2024-04-19T03:57:34.145Z,100111.20
2024-04-19T04:02:40.074Z,100110.52
2024-04-19T04:07:46.209Z,100112.98
2024-04-19T04:12:55.562Z,100114.92
2024-04-19T04:18:03.998Z,100115.66
2024-04-19T04:23:10.159Z,100111.52
2024-04-19T04:28:16.253Z,100103.66
2024-04-19T04:33:22.535Z,100104.31
2024-04-19T04:38:28.721Z,100105.30
2024-04-19T04:43:34.923Z,100107.95
2024-04-19T04:48:41.261Z,100104.92
2024-04-19T04:53:47.272Z,100103.12
2024-04-19T04:58:53.219Z,100098.35
2024-04-19T05:03:59.322Z,100088.38
2024-04-19T05:09:05.469Z,100082.34
2024-04-19T05:14:11.414Z,100071.67
2024-04-19T05:19:17.647Z,100047.70
2024-04-19T05:24:23.932Z,100029.85
2024-04-19T05:29:29.895Z,100026.20
2024-04-19T05:34:37.177Z,100031.07
2024-04-19T05:39:43.472Z,100032.92
2024-04-19T05:44:49.620Z,100035.73
2024-04-19T05:49:55.890Z,100024.77
2024-04-19T05:55:02.274Z,100020.19
2024-04-19T06:00:09.667Z,100015.48
2024-04-19T06:05:15.975Z,100005.92
2024-04-19T06:10:22.130Z,100013.52
2024-04-19T06:15:28.303Z,100011.88
2024-04-19T06:20:38.068Z,100015.57
2024-04-19T06:25:44.418Z,100012.73
2024-04-19T06:30:50.879Z,100011.34
2024-04-19T06:35:59.734Z,100006.19
2024-04-19T06:41:06.765Z,100005.80
2024-04-19T06:46:14.885Z,99992.48
2024-04-19T06:51:21.025Z,99986.70
2024-04-19T06:56:27.193Z,99982.98
2024-04-19T07:01:34.250Z,99982.41
2024-04-19T07:06:42.811Z,99979.48
2024-04-19T07:11:50.560Z,99980.60
2024-04-19T07:16:56.651Z,99974.61
2024-04-19T07:22:02.828Z,99968.63
2024-04-19T07:27:08.754Z,99962.88
2024-04-19T07:32:15.043Z,99953.05
2024-04-19T07:37:21.069Z,99946.08
2024-04-19T07:42:30.213Z,99937.10
2024-04-19T07:47:36.351Z,99936.45
2024-04-19T07:52:42.495Z,99935.40
2024-04-19T07:57:49.883Z,99931.85
2024-04-19T08:02:56.089Z,99933.81
2024-04-19T08:08:02.726Z,99929.21
2024-04-19T08:13:09.308Z,99908.58
2024-04-19T08:18:15.385Z,99906.92
2024-04-19T08:23:21.576Z,99903.94
2024-04-19T08:28:28.666Z,99902.64
2024-04-19T08:33:34.728Z,99898.98
2024-04-19T08:38:40.753Z,99893.37
2024-04-19T08:43:47.344Z,99884.96
2024-04-19T08:48:53.963Z,99882.55
2024-04-19T08:54:00.229Z,99883.48
2024-04-19T08:59:06.588Z,99882.25
2024-04-19T09:04:15.451Z,99883.02
2024-04-19T09:09:22.172Z,99876.98
2024-04-19T09:14:28.351Z,99869.28
2024-04-19T09:19:34.584Z,99860.47
2024-04-19T09:24:41.717Z,99853.83
2024-04-19T09:29:47.838Z,99852.86
2024-04-19T09:34:53.779Z,99850.63
2024-04-19T09:40:00.627Z,99848.09
2024-04-19T09:45:09.709Z,99841.08
2024-04-19T09:50:17.187Z,99830.52
2024-04-19T09:55:29.688Z,99815.43
2024-04-19T10:00:36.158Z,99804.43
2024-04-19T10:05:42.460Z,99805.41
2024-04-19T10:10:48.503Z,99797.08
2024-04-19T10:15:58.568Z,99786.63
2024-04-19T10:21:05.102Z,99788.05
2024-04-19T10:26:11.431Z,99788.37
2024-04-19T10:31:17.770Z,99781.60
2024-04-19T10:36:34.824Z,99783.88
2024-04-19T10:41:53.637Z,99781.20
2024-04-19T10:46:59.640Z,99780.10
2024-04-19T10:52:06.162Z,99774.13
2024-04-19T10:57:12.715Z,99760.67
2024-04-19T11:02:19.596Z,99758.85
2024-04-19T11:07:25.809Z,99758.30
2024-04-19T11:12:31.859Z,99750.41
2024-04-19T11:17:40.451Z,99729.02
2024-04-19T11:22:47.728Z,99712.35
2024-04-19T11:27:54.148Z,99703.29
2024-04-19T11:33:01.258Z,99688.68
2024-04-19T11:38:07.467Z,99697.85
2024-04-19T11:43:13.766Z,99702.80
2024-04-19T11:48:25.313Z,99691.71
2024-04-19T11:53:31.738Z,99682.00
2024-04-19T11:58:37.886Z,99671.21
2024-04-19T12:03:43.988Z,99664.08
2024-04-19T12:08:50.500Z,99660.42
2024-04-19T12:14:50.542Z,99664.45
2024-04-19T12:19:23.494Z,99669.22
2024-04-19T12:24:36.835Z,99660.31
2024-04-19T12:29:46.876Z,99661.89
2024-04-19T12:34:53.583Z,99662.13
2024-04-19T12:40:00.031Z,99662.40
2024-04-19T12:45:06.975Z,99663.62
2024-04-19T12:50:13.232Z,99649.73
2024-04-19T12:55:19.183Z,99641.65
2024-04-19T13:00:25.423Z,99634.53
2024-04-19T13:05:31.912Z,99643.43
2024-04-19T13:10:41.955Z,99644.40
2024-04-19T13:15:47.307Z,99643.01
2024-04-19T13:20:53.499Z,99639.87
2024-04-19T13:25:59.479Z,99639.20
2024-04-19T13:31:05.785Z,99633.27
2024-04-19T13:36:12.028Z,99627.80
2024-04-19T13:41:18.792Z,99622.41
2024-04-19T13:46:25.260Z,99625.82
2024-04-19T13:51:31.682Z,99628.66
2024-04-19T13:56:38.462Z,99632.45
2024-04-19T14:01:44.733Z,99630.64
2024-04-19T14:06:50.859Z,99629.44
2024-04-19T14:11:58.281Z,99620.80
2024-04-19T14:17:05.409Z,99622.98
2024-04-19T14:22:13.214Z,99620.81
2024-04-19T14:27:19.238Z,99621.12
2024-04-19T14:32:25.717Z,99617.56
2024-04-19T14:37:31.861Z,99614.98
2024-04-19T14:42:40.385Z,99608.02
2024-04-19T14:47:46.768Z,99616.77
2024-04-19T14:53:00.178Z,99614.35
2024-04-19T14:58:10.530Z,99619.58
2024-04-19T15:03:18.202Z,99624.11
2024-04-19T15:08:24.597Z,99635.30
2024-04-19T15:13:32.522Z,99644.05
2024-04-19T15:18:40.938Z,99659.29
2024-04-19T15:23:47.074Z,99689.05
2024-04-19T15:28:53.447Z,99712.64
2024-04-19T15:34:09.871Z,99720.59
2024-04-19T15:39:25.816Z,99720.30
2024-04-19T15:44:31.878Z,99728.92
2024-04-19T15:49:38.062Z,99726.98
2024-04-19T15:54:44.407Z,99728.51
2024-04-19T15:59:51.281Z,99727.86
2024-04-19T16:04:57.590Z,99722.97
2024-04-19T16:10:04.138Z,99710.64
2024-04-19T16:15:11.717Z,99700.84
2024-04-19T16:20:18.756Z,99687.35
2024-04-19T16:25:25.099Z,99679.54
2024-04-19T16:30:31.067Z,99672.24
2024-04-19T16:35:44.093Z,99655.81
2024-04-19T16:40:57.318Z,99653.80
2024-04-19T16:46:03.600Z,99647.32
2024-04-19T16:51:10.091Z,99645.66
2024-04-19T16:56:18.140Z,99641.82
2024-04-19T17:01:24.899Z,99636.14
2024-04-19T17:06:30.958Z,99632.75
2024-04-19T17:11:37.119Z,99633.95
2024-04-19T17:16:44.820Z,99639.98
2024-04-19T17:21:50.994Z,99643.23
2024-04-19T17:26:57.126Z,99639.44
2024-04-19T17:32:03.290Z,99632.14
2024-04-19T17:37:10.767Z,99627.25
2024-04-19T17:42:18.767Z,99628.05
2024-04-19T17:47:25.412Z,99631.85
2024-04-19T17:52:31.824Z,99634.49
2024-04-19T17:57:38.035Z,99642.31
2024-04-19T18:02:44.260Z,99644.35
2024-04-19T18:07:50.359Z,99645.45
2024-04-19T18:12:56.983Z,99645.09
2024-04-19T18:18:04.695Z,99642.38
2024-04-19T18:23:13.979Z,99637.61
2024-04-19T18:28:20.946Z,99637.32
2024-04-19T18:33:27.568Z,99639.48
2024-04-19T18:38:33.860Z,99636.92
2024-04-19T18:43:41.220Z,99635.16
2024-04-19T18:48:47.394Z,99640.35
2024-04-19T18:53:57.749Z,99636.80
2024-04-19T18:59:03.932Z,99635.73
2024-04-19T19:04:10.078Z,99636.77
2024-04-19T19:09:17.371Z,99636.84
2024-04-19T19:14:23.678Z,99635.34
2024-04-19T19:19:30.262Z,99630.62
2024-04-19T19:24:36.407Z,99630.29
2024-04-19T19:29:42.823Z,99618.31
2024-04-19T19:34:50.159Z,99612.23
2024-04-19T19:40:00.472Z,99612.38
2024-04-19T19:45:07.983Z,99611.55
2024-04-19T19:50:14.070Z,99601.52
2024-04-19T19:55:20.066Z,99606.75
2024-04-19T20:00:45.074Z,99607.36
2024-04-19T20:05:52.686Z,99600.36
2024-04-19T20:10:58.971Z,99596.95
2024-04-19T20:16:05.650Z,99597.77
2024-04-19T20:21:11.809Z,99601.22
2024-04-19T20:26:17.915Z,99596.54
2024-04-19T20:31:24.295Z,99598.73
2024-04-19T20:36:30.309Z,99601.17
2024-04-19T20:41:38.198Z,99599.84
2024-04-19T20:46:44.550Z,99592.15
2024-04-19T20:51:50.817Z,99602.57
2024-04-19T20:56:57.073Z,99601.77
2024-04-19T21:02:04.214Z,99599.69
2024-04-19T21:07:10.300Z,99593.98
2024-04-19T21:12:16.673Z,99590.24
2024-04-19T21:17:25.436Z,99591.02
2024-04-19T21:22:32.963Z,99589.06
2024-04-19T21:27:40.358Z,99583.77
2024-04-19T21:32:46.555Z,99586.23
2024-04-19T21:37:53.423Z,99584.89
2024-04-19T21:42:59.871Z,99581.46
2024-04-19T21:48:07.070Z,99581.17
2024-04-19T21:53:13.220Z,99580.92
2024-04-19T21:58:19.199Z,99583.46
2024-04-19T22:03:25.490Z,99582.43
2024-04-19T22:08:31.682Z,99580.84
2024-04-19T22:13:37.946Z,99574.13
2024-04-19T22:18:44.176Z,99572.64
2024-04-19T22:23:50.169Z,99571.20
2024-04-19T22:28:56.264Z,99569.23
2024-04-19T22:34:02.660Z,99566.08
2024-04-19T22:39:08.883Z,99560.67
2024-04-19T22:44:15.091Z,99560.77
2024-04-19T22:49:21.188Z,99558.02
2024-04-19T22:54:27.245Z,99561.09
2024-04-19T22:59:33.276Z,99561.89
2024-04-19T23:04:39.461Z,99554.77
2024-04-19T23:09:45.637Z,99556.75
2024-04-19T23:14:51.716Z,99553.21
2024-04-19T23:19:58.122Z,99556.79
2024-04-19T23:25:05.051Z,99554.64
2024-04-19T23:30:11.932Z,99548.55
2024-04-19T23:35:18.244Z,99542.30
2024-04-19T23:40:25.249Z,99542.77
2024-04-19T23:45:32.971Z,99534.60
2024-04-19T23:50:39.326Z,99525.64
2024-04-19T23:55:45.489Z,99528.23
